Alexander, New York
Current Conditions -  °F | °C
As of 3:54 PM on Thursday 27 Nov 2014 (Local Time) from KBUF Reporting Station
Overcast Overcast  
Wind Chill: -3°   Ceiling: 7500
Heat Index:   Visibility: 10mi
Dew Point: -6°   Wind: 9mph
Humidity: 61%   Direction: 280°W
Pressure: 30.05"   Gusts: NA
Location:  42.9°N, 78.26°W
Report Text: KBUF 272054Z 28008KT 10SM FEW030 SCT042 OVC075 01/M06 A3005 RMK AO2 SLP182 T00111056 53003
Loading
Personal Weather Stations






























Interactive Weather Map New forecast layout! Learn more

10-Day Weather Forecast

Advertisements
Track Severe Weather on mobile